Time,TemperatureF,DewpointF,PressureIn,WindDirection,WindDirectionDegrees,WindSpeedMPH,WindSpeedGustMPH,Humidity,HourlyPrecipIn,Conditions,Clouds,dailyrainin,SoftwareType,DateUTC
2013-06-04 00:23:00,68.0,-99.9,29.84,North,6,-999.0,-999.0,-999,-99.99,,,-99.99,,2013-06-04 04:23:00,
2013-06-04 00:33:00,68.0,-99.9,29.84,North,6,-999.0,-999.0,-999,-99.99,,,-99.99,,2013-06-04 04:33:00,
2013-06-04 00:42:00,68.0,-99.9,29.84,North,6,-999.0,-999.0,-999,-99.99,,,-99.99,,2013-06-04 04:42:00,
2013-06-04 00:52:00,65.0,-99.9,29.87,North,-999,-999.0,-999.0,-999,-99.99,,,-99.99,,2013-06-04 04:52:00,
2013-06-04 01:22:00,65.0,-99.9,29.87,North,-999,-999.0,-999.0,-999,-99.99,,,-99.99,,2013-06-04 05:22:00,
2013-06-04 01:32:00,65.0,-99.9,29.87,North,-999,-999.0,-999.0,-999,-99.99,,,-99.99,,2013-06-04 05:32:00,
2013-06-04 01:42:00,65.0,-99.9,29.87,North,-999,-999.0,-999.0,-999,-99.99,,,-99.99,,2013-06-04 05:42:00,
2013-06-04 01:52:00,64.0,-99.9,29.88,North,-999,-999.0,-999.0,-999,-99.99,,,-99.99,,2013-06-04 05:52:00,
2013-06-04 02:22:00,64.0,-99.9,29.88,North,-999,-999.0,-999.0,-999,-99.99,,,-99.99,,2013-06-04 06:22:00,
2013-06-04 02:32:00,64.0,-99.9,29.88,North,-999,-999.0,-999.0,-999,-99.99,,,-99.99,,2013-06-04 06:32:00,
2013-06-04 02:42:00,64.0,-99.9,29.88,North,-999,-999.0,-999.0,-999,-99.99,,,-99.99,,2013-06-04 06:42:00,
2013-06-04 02:52:00,62.0,-99.9,29.90,ENE,62,-999.0,-999.0,-999,-99.99,,,-99.99,,2013-06-04 06:52:00,
2013-06-04 03:22:00,62.0,-99.9,29.90,ENE,62,-999.0,-999.0,-999,-99.99,,,-99.99,,2013-06-04 07:22:00,
2013-06-04 03:32:00,62.0,-99.9,29.90,ENE,62,-999.0,-999.0,-999,-99.99,,,-99.99,,2013-06-04 07:32:00,
2013-06-04 03:42:00,62.0,-99.9,29.90,ENE,62,-999.0,-999.0,-999,-99.99,,,-99.99,,2013-06-04 07:42:00,
2013-06-04 03:52:00,60.0,-99.9,29.91,East,89,-999.0,4.0,-999,-99.99,,,-99.99,,2013-06-04 07:52:00,
2013-06-04 04:22:00,60.0,-99.9,29.91,East,89,-999.0,4.0,-999,-99.99,,,-99.99,,2013-06-04 08:22:00,
2013-06-04 04:32:00,60.0,-99.9,29.91,East,89,-999.0,4.0,-999,-99.99,,,-99.99,,2013-06-04 08:32:00,
2013-06-04 04:42:00,60.0,-99.9,29.91,East,89,-999.0,4.0,-999,-99.99,,,-99.99,,2013-06-04 08:42:00,
2013-06-04 04:52:00,58.0,-99.9,29.92,North,-999,-999.0,-999.0,-999,-99.99,,,-99.99,,2013-06-04 08:52:00,
2013-06-04 05:22:00,58.0,-99.9,29.92,North,-999,-999.0,-999.0,-999,-99.99,,,-99.99,,2013-06-04 09:22:00,
2013-06-04 05:33:00,58.0,-99.9,29.92,North,-999,-999.0,-999.0,-999,-99.99,,,-99.99,,2013-06-04 09:33:00,
2013-06-04 05:43:00,58.0,-99.9,29.92,North,-999,-999.0,-999.0,-999,-99.99,,,-99.99,,2013-06-04 09:43:00,
2013-06-04 05:52:00,56.0,-99.9,29.95,North,-999,-999.0,-999.0,-999,-99.99,,,-99.99,,2013-06-04 09:52:00,
2013-06-04 06:33:00,56.0,-99.9,29.95,North,-999,-999.0,-999.0,-999,-99.99,,,-99.99,,2013-06-04 10:33:00,
2013-06-04 06:42:00,56.0,-99.9,29.95,North,-999,-999.0,-999.0,-999,-99.99,,,-99.99,,2013-06-04 10:42:00,
2013-06-04 06:52:00,56.0,-99.9,29.97,North,-999,-999.0,-999.0,-999,-99.99,,,-99.99,,2013-06-04 10:52:00,
2013-06-04 07:22:00,56.0,-99.9,29.97,North,-999,-999.0,-999.0,-999,-99.99,,,-99.99,,2013-06-04 11:22:00,
2013-06-04 07:32:00,56.0,-99.9,29.97,North,-999,-999.0,-999.0,-999,-99.99,,,-99.99,,2013-06-04 11:32:00,
2013-06-04 07:43:00,56.0,-99.9,29.97,North,-999,-999.0,-999.0,-999,-99.99,,,-99.99,,2013-06-04 11:43:00,
2013-06-04 07:52:00,58.0,-99.9,29.99,North,9,-999.0,-999.0,-999,-99.99,,,-99.99,,2013-06-04 11:52:00,
2013-06-04 08:22:00,58.0,-99.9,29.99,North,9,-999.0,-999.0,-999,-99.99,,,-99.99,,2013-06-04 12:22:00,
2013-06-04 08:32:00,58.0,-99.9,29.99,North,9,-999.0,-999.0,-999,-99.99,,,-99.99,,2013-06-04 12:32:00,
2013-06-04 08:42:00,58.0,-99.9,29.99,North,9,-999.0,-999.0,-999,-99.99,,,-99.99,,2013-06-04 12:42:00,
2013-06-04 08:52:00,60.0,-99.9,30.00,North,-999,-999.0,3.0,-999,-99.99,,,-99.99,,2013-06-04 12:52:00,
2013-06-04 09:23:00,60.0,-99.9,30.00,North,-999,-999.0,3.0,-999,-99.99,,,-99.99,,2013-06-04 13:23:00,
2013-06-04 09:32:00,60.0,-99.9,30.00,North,-999,-999.0,3.0,-999,-99.99,,,-99.99,,2013-06-04 13:32:00,
2013-06-04 09:42:00,60.0,-99.9,30.00,North,-999,-999.0,3.0,-999,-99.99,,,-99.99,,2013-06-04 13:42:00,
2013-06-04 09:52:00,63.0,-99.9,30.01,NNE,27,-999.0,-999.0,-999,-99.99,,,-99.99,,2013-06-04 13:52:00,
2013-06-04 10:23:00,63.0,-99.9,30.01,NNE,27,-999.0,-999.0,-999,-99.99,,,-99.99,,2013-06-04 14:23:00,
2013-06-04 10:32:00,63.0,-99.9,30.01,NNE,27,-999.0,-999.0,-999,-99.99,,,-99.99,,2013-06-04 14:32:00,
2013-06-04 10:43:00,63.0,-99.9,30.01,NNE,27,-999.0,-999.0,-999,-99.99,,,-99.99,,2013-06-04 14:43:00,
2013-06-04 10:52:00,66.0,-99.9,30.01,North,-999,-999.0,-999.0,-999,-99.99,,,-99.99,,2013-06-04 14:52:00,
2013-06-04 11:33:00,66.0,-99.9,30.01,North,-999,-999.0,-999.0,-999,-99.99,,,-99.99,,2013-06-04 15:33:00,
2013-06-04 11:42:00,66.0,-99.9,30.01,North,-999,-999.0,-999.0,-999,-99.99,,,-99.99,,2013-06-04 15:42:00,
2013-06-04 11:52:00,68.0,-99.9,30.01,North,-999,-999.0,-999.0,-999,-99.99,,,-99.99,,2013-06-04 15:52:00,
2013-06-04 12:33:00,68.0,-99.9,30.01,North,-999,-999.0,-999.0,-999,-99.99,,,-99.99,,2013-06-04 16:33:00,
2013-06-04 12:42:00,68.0,-99.9,30.01,North,-999,-999.0,-999.0,-999,-99.99,,,-99.99,,2013-06-04 16:42:00,
2013-06-04 12:52:00,69.0,-99.9,30.01,WNW,295,-999.0,-999.0,-999,-99.99,,,-99.99,,2013-06-04 16:52:00,
2013-06-04 13:33:00,69.0,-99.9,30.01,WNW,295,-999.0,-999.0,-999,-99.99,,,-99.99,,2013-06-04 17:33:00,
2013-06-04 13:42:00,69.0,-99.9,30.01,WNW,295,-999.0,-999.0,-999,-99.99,,,-99.99,,2013-06-04 17:42:00,
2013-06-04 13:52:00,72.0,-99.9,29.99,NNW,341,-999.0,3.0,-999,-99.99,,,-99.99,,2013-06-04 17:52:00,
2013-06-04 14:32:00,72.0,-99.9,29.99,NNW,341,-999.0,3.0,-999,-99.99,,,-99.99,,2013-06-04 18:32:00,
2013-06-04 14:42:00,72.0,-99.9,29.99,NNW,341,-999.0,3.0,-999,-99.99,,,-99.99,,2013-06-04 18:42:00,
2013-06-04 14:52:00,74.0,-99.9,29.97,North,-999,-999.0,-999.0,-999,-99.99,,,-99.99,,2013-06-04 18:52:00,
2013-06-04 15:33:00,74.0,-99.9,29.97,North,-999,-999.0,-999.0,-999,-99.99,,,-99.99,,2013-06-04 19:33:00,
2013-06-04 15:42:00,74.0,-99.9,29.97,North,-999,-999.0,-999.0,-999,-99.99,,,-99.99,,2013-06-04 19:42:00,
2013-06-04 15:52:00,75.0,-99.9,29.97,North,1,-999.0,4.0,-999,-99.99,,,-99.99,,2013-06-04 19:52:00,
2013-06-04 16:32:00,75.0,-99.9,29.97,North,1,-999.0,4.0,-999,-99.99,,,-99.99,,2013-06-04 20:32:00,
2013-06-04 16:42:00,75.0,-99.9,29.97,North,1,-999.0,4.0,-999,-99.99,,,-99.99,,2013-06-04 20:42:00,
2013-06-04 16:52:00,76.0,-99.9,29.96,North,-999,-999.0,2.0,-999,-99.99,,,-99.99,,2013-06-04 20:52:00,
2013-06-04 17:22:00,76.0,-99.9,29.96,North,-999,-999.0,2.0,-999,-99.99,,,-99.99,,2013-06-04 21:22:00,
2013-06-04 17:33:00,76.0,-99.9,29.96,North,-999,-999.0,2.0,-999,-99.99,,,-99.99,,2013-06-04 21:33:00,
2013-06-04 17:43:00,76.0,-99.9,29.96,North,-999,-999.0,2.0,-999,-99.99,,,-99.99,,2013-06-04 21:43:00,
2013-06-04 17:52:00,76.0,-99.9,29.96,North,-999,-999.0,3.0,-999,-99.99,,,-99.99,,2013-06-04 21:52:00,
2013-06-04 18:22:00,76.0,-99.9,29.96,North,-999,-999.0,3.0,-999,-99.99,,,-99.99,,2013-06-04 22:22:00,
2013-06-04 18:33:00,76.0,-99.9,29.96,North,-999,-999.0,3.0,-999,-99.99,,,-99.99,,2013-06-04 22:33:00,
2013-06-04 18:42:00,76.0,-99.9,29.96,North,-999,-999.0,3.0,-999,-99.99,,,-99.99,,2013-06-04 22:42:00,
2013-06-04 18:52:00,75.0,-99.9,29.97,North,-999,-999.0,3.0,-999,-99.99,,,-99.99,,2013-06-04 22:52:00,
2013-06-04 19:22:00,75.0,-99.9,29.97,North,-999,-999.0,3.0,-999,-99.99,,,-99.99,,2013-06-04 23:22:00,
2013-06-04 19:32:00,75.0,-99.9,29.97,North,-999,-999.0,3.0,-999,-99.99,,,-99.99,,2013-06-04 23:32:00,
2013-06-04 19:42:00,75.0,-99.9,29.97,North,-999,-999.0,3.0,-999,-99.99,,,-99.99,,2013-06-04 23:42:00,
2013-06-04 19:52:00,71.0,-99.9,29.98,North,3,-999.0,-999.0,-999,-99.99,,,-99.99,,2013-06-04 23:52:00,
2013-06-04 20:22:00,71.0,-99.9,29.98,North,3,-999.0,-999.0,-999,-99.99,,,-99.99,,2013-06-05 00:22:00,
2013-06-04 20:33:00,71.0,-99.9,29.98,North,3,-999.0,-999.0,-999,-99.99,,,-99.99,,2013-06-05 00:33:00,
2013-06-04 20:42:00,71.0,-99.9,29.98,North,3,-999.0,-999.0,-999,-99.99,,,-99.99,,2013-06-05 00:42:00,
2013-06-04 21:22:00,64.0,-99.9,30.01,North,3,-999.0,-999.0,-999,-99.99,,,-99.99,,2013-06-05 01:22:00,
2013-06-04 21:32:00,64.0,-99.9,30.01,North,3,-999.0,-999.0,-999,-99.99,,,-99.99,,2013-06-05 01:32:00,
2013-06-04 21:42:00,64.0,-99.9,30.01,North,3,-999.0,-999.0,-999,-99.99,,,-99.99,,2013-06-05 01:42:00,
2013-06-04 21:52:00,64.0,-99.9,30.01,North,3,-999.0,-999.0,-999,-99.99,,,-99.99,,2013-06-05 01:52:00,
2013-06-04 22:22:00,59.0,-99.9,30.05,North,3,-999.0,-999.0,-999,-99.99,,,-99.99,,2013-06-05 02:22:00,
2013-06-04 22:32:00,59.0,-99.9,30.05,North,3,-999.0,-999.0,-999,-99.99,,,-99.99,,2013-06-05 02:32:00,
2013-06-04 22:42:00,59.0,-99.9,30.05,North,3,-999.0,-999.0,-999,-99.99,,,-99.99,,2013-06-05 02:42:00,
2013-06-04 22:52:00,56.0,-99.9,30.06,North,3,-999.0,-999.0,-999,-99.99,,,-99.99,,2013-06-05 02:52:00,
2013-06-04 23:33:00,56.0,-99.9,30.06,North,3,-999.0,-999.0,-999,-99.99,,,-99.99,,2013-06-05 03:33:00,
2013-06-04 23:43:00,56.0,-99.9,30.06,North,3,-999.0,-999.0,-999,-99.99,,,-99.99,,2013-06-05 03:43:00,
2013-06-04 23:52:00,55.0,-99.9,30.07,North,3,-999.0,-999.0,-999,-99.99,,,-99.99,,2013-06-05 03:52:00,